Time;durP1;ratioP1;P1;durP2;ratioP2;P2;SDS_P1;SDS_P2;PMS_P1;PMS_P2;Temp;Humidity;BMP_temperature;BMP_pressure;BME280_temperature;BME280_humidity;BME280_pressure;Samples;Min_cycle;Max_cycle;Signal;HPM_P1;HPM_P2
2024/01/08 00:00:53;;;;;;;1.45;1.35;;;0.60;99.90;;;;;;5026434;28;20029;-48
2024/01/08 00:03:19;;;;;;;2.47;1.17;;;0.70;99.90;;;;;;5025833;28;20042;-44
2024/01/08 00:05:45;;;;;;;1.73;1.38;;;0.70;99.90;;;;;;5024963;28;20040;-45
2024/01/08 00:08:10;;;;;;;1.00;1.00;;;0.60;99.90;;;;;;5026014;28;20030;-47
2024/01/08 00:10:37;;;;;;;1.85;1.55;;;0.60;99.90;;;;;;5026239;28;20069;-47
2024/01/08 00:13:03;;;;;;;1.23;1.17;;;0.60;99.90;;;;;;5026138;28;20028;-45
2024/01/08 00:15:28;;;;;;;1.50;1.50;;;0.60;99.90;;;;;;5028523;28;20046;-43
2024/01/08 00:17:54;;;;;;;1.73;1.30;;;0.60;99.90;;;;;;5026131;28;20493;-47
2024/01/08 00:20:19;;;;;;;4.72;1.60;;;0.70;99.90;;;;;;5030194;28;20036;-53
2024/01/08 00:22:45;;;;;;;1.27;1.17;;;0.70;99.90;;;;;;5030152;28;20109;-55
2024/01/08 00:25:10;;;;;;;1.17;1.17;;;0.80;99.90;;;;;;5030098;28;20033;-46
2024/01/08 00:27:36;;;;;;;2.95;1.40;;;0.80;99.90;;;;;;5028652;28;20049;-43
2024/01/08 00:30:02;;;;;;;2.00;1.75;;;0.80;99.90;;;;;;5031464;28;20489;-40
2024/01/08 00:32:27;;;;;;;2.60;1.27;;;0.80;99.90;;;;;;5029950;28;20060;-40
2024/01/08 00:34:53;;;;;;;3.08;1.10;;;0.80;99.90;;;;;;5028683;28;20424;-42
2024/01/08 00:37:18;;;;;;;1.33;1.23;;;0.70;99.90;;;;;;5028409;28;20018;-41
2024/01/08 00:39:44;;;;;;;3.08;1.40;;;0.70;99.90;;;;;;5030050;28;20022;-43
2024/01/08 00:42:09;;;;;;;2.70;1.27;;;0.70;99.90;;;;;;5029992;28;20457;-54
2024/01/08 00:44:35;;;;;;;2.15;1.50;;;0.70;99.90;;;;;;5029462;28;20045;-45
2024/01/08 00:47:00;;;;;;;1.05;1.00;;;0.70;99.90;;;;;;5028184;28;20240;-50
2024/01/08 00:49:26;;;;;;;1.77;1.30;;;0.70;99.90;;;;;;5029341;28;20033;-40
2024/01/08 00:51:51;;;;;;;1.63;1.38;;;0.70;99.90;;;;;;5028861;28;20546;-48
2024/01/08 00:54:17;;;;;;;2.40;1.60;;;0.80;99.90;;;;;;5029640;28;20029;-47
2024/01/08 00:56:42;;;;;;;1.40;1.30;;;0.80;99.90;;;;;;5027003;28;20108;-45
2024/01/08 00:59:08;;;;;;;1.23;1.15;;;0.70;99.90;;;;;;5029704;28;20033;-48
2024/01/08 01:01:33;;;;;;;1.38;1.10;;;0.70;99.90;;;;;;5030293;28;20090;-44
2024/01/08 01:03:59;;;;;;;1.52;1.23;;;0.70;99.90;;;;;;5030725;28;20073;-42
2024/01/08 01:06:25;;;;;;;1.50;1.40;;;0.60;99.90;;;;;;5031219;28;20477;-42
2024/01/08 01:08:50;;;;;;;1.92;1.50;;;0.70;99.90;;;;;;5031108;28;20073;-40
2024/01/08 01:11:16;;;;;;;1.33;1.33;;;0.60;99.90;;;;;;5030724;28;20377;-42
2024/01/08 01:13:42;;;;;;;1.48;1.40;;;0.70;99.90;;;;;;5031522;28;20033;-48
2024/01/08 01:16:08;;;;;;;1.63;1.52;;;0.70;99.90;;;;;;5032385;28;20509;-44
2024/01/08 01:18:33;;;;;;;1.73;1.63;;;0.70;99.90;;;;;;5033712;28;20028;-45
2024/01/08 01:20:59;;;;;;;2.30;1.67;;;0.70;99.90;;;;;;5064002;23;20049;-49
2024/01/08 01:23:25;;;;;;;1.98;1.40;;;0.60;99.90;;;;;;5056136;28;20025;-51
2024/01/08 01:25:50;;;;;;;1.67;1.58;;;0.60;99.90;;;;;;5056480;28;20035;-48
2024/01/08 01:28:16;;;;;;;1.65;1.45;;;0.60;99.90;;;;;;5056240;28;20109;-50
2024/01/08 01:30:42;;;;;;;1.90;1.75;;;0.60;99.90;;;;;;5061893;28;20064;-50
2024/01/08 01:33:07;;;;;;;1.48;1.38;;;0.50;99.90;;;;;;5056234;28;20036;-50
2024/01/08 01:35:33;;;;;;;5.00;1.35;;;0.60;99.90;;;;;;5073822;28;20025;-49
2024/01/08 01:37:58;;;;;;;1.95;1.77;;;0.60;99.90;;;;;;5073919;28;20480;-52
2024/01/08 01:40:27;;;;;;;1.42;1.33;;;0.60;99.90;;;;;;5073874;28;20020;-51
2024/01/08 01:42:54;;;;;;;2.08;1.20;;;0.60;99.90;;;;;;5073646;28;20020;-48
2024/01/08 01:45:23;;;;;;;1.65;1.50;;;0.60;99.90;;;;;;5073318;28;20021;-47
2024/01/08 01:47:54;;;;;;;1.85;1.52;;;0.50;99.90;;;;;;5073357;28;20114;-51
2024/01/08 01:50:21;;;;;;;1.83;1.73;;;0.60;99.90;;;;;;5073434;28;20021;-52
2024/01/08 01:52:46;;;;;;;1.98;1.88;;;0.60;99.90;;;;;;5073696;28;20066;-53
2024/01/08 01:55:12;;;;;;;1.48;1.38;;;0.60;99.90;;;;;;5073315;28;20028;-56
2024/01/08 01:57:39;;;;;;;1.25;1.23;;;0.60;99.90;;;;;;5055441;28;20024;-54
2024/01/08 02:00:05;;;;;;;1.60;1.50;;;0.50;99.90;;;;;;5073146;28;20178;-48
2024/01/08 02:02:31;;;;;;;2.67;1.55;;;0.50;99.90;;;;;;5073165;28;20021;-47
2024/01/08 02:04:57;;;;;;;1.58;1.48;;;0.50;99.90;;;;;;5073187;28;20032;-49
2024/01/08 02:07:23;;;;;;;1.35;1.35;;;0.40;99.90;;;;;;5073373;28;20044;-51
2024/01/08 02:09:49;;;;;;;3.40;1.52;;;0.50;99.90;;;;;;5055073;28;20025;-52
2024/01/08 02:12:16;;;;;;;1.42;1.30;;;0.50;99.90;;;;;;5072975;28;20071;-54
2024/01/08 02:14:43;;;;;;;2.03;1.50;;;0.50;99.90;;;;;;5072935;28;20579;-50
2024/01/08 02:17:08;;;;;;;1.52;1.40;;;0.50;99.90;;;;;;5073485;28;20055;-54
2024/01/08 02:19:34;;;;;;;1.38;1.27;;;0.50;99.90;;;;;;5072621;28;20021;-49
2024/01/08 02:21:59;;;;;;;1.25;1.25;;;0.50;99.90;;;;;;5072607;28;20039;-51
2024/01/08 02:24:28;;;;;;;1.90;1.80;;;0.50;99.90;;;;;;5072652;28;20029;-55
2024/01/08 02:26:54;;;;;;;1.80;1.70;;;0.60;99.90;;;;;;5073129;28;20024;-53
2024/01/08 02:29:21;;;;;;;5.88;1.80;;;0.50;99.90;;;;;;5072732;28;20419;-54
2024/01/08 02:31:47;;;;;;;1.50;1.40;;;0.50;99.90;;;;;;5072576;28;20036;-51
2024/01/08 02:34:12;;;;;;;1.50;1.40;;;0.50;99.90;;;;;;5054607;28;20023;-50
2024/01/08 02:36:38;;;;;;;3.00;1.70;;;0.50;99.90;;;;;;5072463;28;20021;-50
2024/01/08 02:39:04;;;;;;;3.83;1.52;;;0.50;99.90;;;;;;5054631;28;20123;-52
2024/01/08 02:41:29;;;;;;;1.05;1.05;;;0.50;99.90;;;;;;5071488;28;20020;-51
2024/01/08 02:43:55;;;;;;;1.23;1.23;;;0.50;99.90;;;;;;5072687;28;20089;-52
2024/01/08 02:46:20;;;;;;;1.65;1.55;;;0.50;99.90;;;;;;5072428;28;20033;-50
2024/01/08 02:48:46;;;;;;;1.58;1.50;;;0.50;99.90;;;;;;5072193;28;20504;-53
2024/01/08 02:51:13;;;;;;;1.90;1.80;;;0.50;99.90;;;;;;5072140;28;20047;-49
2024/01/08 02:53:39;;;;;;;2.83;2.33;;;0.50;99.90;;;;;;5071949;28;20024;-54
2024/01/08 02:56:04;;;;;;;1.45;1.35;;;0.50;99.90;;;;;;5054186;28;20032;-53
2024/01/08 02:58:30;;;;;;;2.42;1.75;;;0.50;99.90;;;;;;5071979;28;20108;-52
2024/01/08 03:00:56;;;;;;;1.67;1.60;;;0.50;99.90;;;;;;5071899;28;20019;-52
2024/01/08 03:03:21;;;;;;;1.60;1.50;;;0.50;99.90;;;;;;5071706;28;20025;-48
2024/01/08 03:05:47;;;;;;;4.22;1.55;;;0.50;99.90;;;;;;5072070;28;20078;-51
2024/01/08 03:08:12;;;;;;;1.70;1.58;;;0.50;99.90;;;;;;5071766;28;20032;-51
2024/01/08 03:10:38;;;;;;;1.58;1.33;;;0.50;99.90;;;;;;5071818;28;20035;-49
2024/01/08 03:13:03;;;;;;;2.28;1.40;;;0.50;99.90;;;;;;5072035;28;20099;-47
2024/01/08 03:15:29;;;;;;;1.65;1.55;;;0.40;99.90;;;;;;5071480;28;20059;-52
2024/01/08 03:17:55;;;;;;;2.05;1.85;;;0.40;99.90;;;;;;5071895;28;20016;-52
2024/01/08 03:20:22;;;;;;;2.15;1.77;;;0.30;99.90;;;;;;5071825;28;20036;-50
2024/01/08 03:22:48;;;;;;;1.63;1.52;;;0.40;99.90;;;;;;5072017;28;20025;-50
2024/01/08 03:25:14;;;;;;;2.53;2.20;;;0.50;99.90;;;;;;5072154;28;20027;-49
2024/01/08 03:27:39;;;;;;;1.58;1.48;;;0.40;99.90;;;;;;5053644;28;20028;-52
2024/01/08 03:30:06;;;;;;;1.95;1.65;;;0.50;99.90;;;;;;5071657;28;20380;-55
2024/01/08 03:32:31;;;;;;;1.58;1.48;;;0.40;99.90;;;;;;5071436;28;20082;-52
2024/01/08 03:34:56;;;;;;;2.72;1.75;;;0.30;99.90;;;;;;5071407;28;20028;-50
2024/01/08 03:37:22;;;;;;;1.70;1.60;;;0.30;99.90;;;;;;5071662;28;20017;-48
2024/01/08 03:39:48;;;;;;;1.70;1.60;;;0.30;99.90;;;;;;5071369;28;20033;-52
2024/01/08 03:42:13;;;;;;;2.20;1.77;;;0.30;99.90;;;;;;5071503;28;20056;-51
2024/01/08 03:44:39;;;;;;;1.98;1.88;;;0.30;99.90;;;;;;5053213;28;20081;-47
2024/01/08 03:47:04;;;;;;;3.33;1.88;;;0.30;99.90;;;;;;5053591;28;20074;-51
2024/01/08 03:49:29;;;;;;;2.65;1.70;;;0.30;99.90;;;;;;5071678;28;20491;-48
2024/01/08 03:51:55;;;;;;;1.38;1.33;;;0.30;99.90;;;;;;5071385;28;20536;-49
2024/01/08 03:54:20;;;;;;;2.60;2.00;;;0.30;99.90;;;;;;5075363;28;20028;-48
2024/01/08 03:56:46;;;;;;;2.97;2.20;;;0.30;99.90;;;;;;5075464;28;20099;-52
2024/01/08 03:59:13;;;;;;;1.95;1.85;;;0.30;99.90;;;;;;5057475;28;20342;-50
2024/01/08 04:01:44;;;;;;;2.13;1.92;;;0.30;99.90;;;;;;5075391;28;20451;-48
2024/01/08 04:04:09;;;;;;;2.08;1.88;;;0.30;99.90;;;;;;5074998;28;20032;-50
2024/01/08 04:06:35;;;;;;;2.75;2.50;;;0.30;99.90;;;;;;5075059;28;20408;-50
2024/01/08 04:09:01;;;;;;;3.22;1.85;;;0.30;99.90;;;;;;5074841;28;20036;-52
2024/01/08 04:11:26;;;;;;;1.73;1.58;;;0.30;99.90;;;;;;5056779;28;20016;-56
2024/01/08 04:13:52;;;;;;;1.70;1.60;;;0.30;99.90;;;;;;5074811;28;20107;-49
2024/01/08 04:16:17;;;;;;;1.70;1.60;;;0.40;99.90;;;;;;5074988;28;20096;-48
2024/01/08 04:18:43;;;;;;;2.10;2.00;;;0.40;99.90;;;;;;5075001;28;20036;-52
2024/01/08 04:21:08;;;;;;;2.17;1.95;;;0.40;99.90;;;;;;5074718;28;20553;-51
2024/01/08 04:23:34;;;;;;;1.67;1.55;;;0.40;99.90;;;;;;5074596;28;20407;-48
2024/01/08 04:25:59;;;;;;;2.00;1.75;;;0.40;99.90;;;;;;5074633;28;20040;-48
2024/01/08 04:28:25;;;;;;;3.63;1.63;;;0.50;99.90;;;;;;5074788;28;20028;-48
2024/01/08 04:30:50;;;;;;;1.60;1.50;;;0.40;99.90;;;;;;5074656;28;20607;-51
2024/01/08 04:33:16;;;;;;;2.08;1.70;;;0.30;99.90;;;;;;5074305;28;20036;-50
2024/01/08 04:35:42;;;;;;;2.40;2.00;;;0.40;99.90;;;;;;5074606;28;20088;-50
2024/01/08 04:38:07;;;;;;;2.05;1.80;;;0.40;99.90;;;;;;5074589;28;20020;-52
2024/01/08 04:40:32;;;;;;;1.63;1.55;;;0.40;99.90;;;;;;5074352;28;20502;-47
2024/01/08 04:42:58;;;;;;;2.00;1.90;;;0.30;99.90;;;;;;5074380;28;20170;-50
2024/01/08 04:45:23;;;;;;;1.67;1.52;;;0.30;99.90;;;;;;5074478;28;20039;-48
2024/01/08 04:47:49;;;;;;;1.92;1.83;;;0.40;99.90;;;;;;5076113;28;20040;-48
2024/01/08 04:50:15;;;;;;;1.80;1.70;;;0.30;99.90;;;;;;5056480;28;20368;-49
2024/01/08 04:52:40;;;;;;;2.35;2.15;;;0.40;99.90;;;;;;5074165;28;20028;-50
2024/01/08 04:55:06;;;;;;;2.25;2.05;;;0.30;99.90;;;;;;5074148;28;20492;-47
2024/01/08 04:57:31;;;;;;;2.38;2.17;;;0.20;99.90;;;;;;5074251;28;20025;-49
2024/01/08 04:59:57;;;;;;;2.10;1.90;;;0.20;99.90;;;;;;5074021;28;20043;-49
2024/01/08 05:02:22;;;;;;;3.15;2.20;;;0.10;99.90;;;;;;5074501;28;20029;-53
2024/01/08 05:04:48;;;;;;;2.33;2.10;;;0.20;99.90;;;;;;5073307;28;20032;-47
2024/01/08 05:07:14;;;;;;;1.95;1.70;;;0.20;99.90;;;;;;5074171;28;20032;-52
2024/01/08 05:09:39;;;;;;;1.80;1.70;;;0.20;99.90;;;;;;5074501;28;20025;-48
2024/01/08 05:12:06;;;;;;;2.53;2.08;;;0.20;99.90;;;;;;5074115;28;20035;-51
2024/01/08 05:14:31;;;;;;;1.95;1.85;;;0.20;99.90;;;;;;5073969;28;20012;-47
2024/01/08 05:16:57;;;;;;;2.75;2.28;;;0.20;99.90;;;;;;5074281;28;20081;-52
2024/01/08 05:19:22;;;;;;;2.08;1.95;;;0.10;99.90;;;;;;5074177;28;20035;-47
2024/01/08 05:21:48;;;;;;;2.40;2.17;;;0.20;99.90;;;;;;5074371;28;20040;-48
2024/01/08 05:24:13;;;;;;;1.92;1.83;;;0.20;99.90;;;;;;5074266;28;20025;-49
2024/01/08 05:26:39;;;;;;;2.40;1.85;;;0.20;99.90;;;;;;5074403;28;20506;-50
2024/01/08 05:29:04;;;;;;;2.53;2.30;;;0.20;99.90;;;;;;5074381;28;20032;-48
2024/01/08 05:31:30;;;;;;;2.53;2.33;;;0.20;99.90;;;;;;5073971;28;20036;-48
2024/01/08 05:33:56;;;;;;;2.63;2.00;;;0.20;99.90;;;;;;5074145;28;20021;-50
2024/01/08 05:36:21;;;;;;;1.92;1.83;;;0.30;99.90;;;;;;5073933;28;20033;-50
2024/01/08 05:38:47;;;;;;;2.25;2.05;;;0.30;99.90;;;;;;5074711;28;20024;-49
2024/01/08 05:41:13;;;;;;;1.48;1.48;;;0.20;99.90;;;;;;5056851;28;20020;-46
2024/01/08 05:43:38;;;;;;;2.17;1.98;;;0.20;99.90;;;;;;5074651;28;20048;-52
2024/01/08 05:46:06;;;;;;;2.28;1.98;;;0.20;99.90;;;;;;5087476;28;20036;-56
2024/01/08 05:48:37;;;;;;;3.40;2.63;;;0.20;99.90;;;;;;5089234;28;20032;-52
2024/01/08 05:51:09;;;;;;;3.38;2.38;;;0.20;99.90;;;;;;5088857;28;20024;-57
2024/01/08 05:53:35;;;;;;;2.03;1.90;;;0.20;99.90;;;;;;5088931;28;20017;-54
2024/01/08 05:56:00;;;;;;;2.70;1.80;;;0.20;99.90;;;;;;5081107;28;20017;-53
2024/01/08 05:58:26;;;;;;;2.15;2.05;;;0.20;99.90;;;;;;5055497;28;20545;-48
2024/01/08 06:00:57;;;;;;;2.83;2.20;;;0.20;99.90;;;;;;5073362;28;20028;-51
2024/01/08 06:03:22;;;;;;;2.45;2.03;;;0.10;99.90;;;;;;5055163;28;20097;-55
2024/01/08 06:05:48;;;;;;;2.63;2.42;;;0.10;99.90;;;;;;5073970;28;20032;-49
2024/01/08 06:08:14;;;;;;;2.50;2.40;;;0.10;99.90;;;;;;5073723;28;20397;-48
2024/01/08 06:10:40;;;;;;;2.72;2.08;;;0.10;99.90;;;;;;5073241;28;20024;-49
2024/01/08 06:13:07;;;;;;;2.53;2.33;;;0.10;99.90;;;;;;5073321;28;20177;-49
2024/01/08 06:15:33;;;;;;;6.15;2.35;;;0.10;99.90;;;;;;5073106;28;20021;-47
2024/01/08 06:17:59;;;;;;;2.65;2.45;;;0.00;99.90;;;;;;5073317;28;20108;-49
2024/01/08 06:20:24;;;;;;;1.80;1.70;;;0.10;99.90;;;;;;5073096;28;20560;-48
2024/01/08 06:22:50;;;;;;;3.13;2.40;;;0.10;99.90;;;;;;5073169;28;20377;-48
2024/01/08 06:25:16;;;;;;;2.72;2.25;;;0.10;99.90;;;;;;5055191;28;20051;-52
2024/01/08 06:27:41;;;;;;;2.22;2.13;;;0.20;99.90;;;;;;5072923;28;20029;-49
2024/01/08 06:30:08;;;;;;;2.67;2.47;;;0.10;99.90;;;;;;5054763;28;20025;-50
2024/01/08 06:32:33;;;;;;;2.72;2.40;;;0.10;99.90;;;;;;5072629;28;20028;-48
2024/01/08 06:34:59;;;;;;;4.90;2.50;;;0.20;99.90;;;;;;5072770;28;20533;-49
2024/01/08 06:37:25;;;;;;;3.75;3.00;;;0.30;99.90;;;;;;5057653;28;20111;-49
2024/01/08 06:39:50;;;;;;;3.28;2.72;;;0.30;99.90;;;;;;5057478;28;20451;-49
2024/01/08 06:42:16;;;;;;;2.08;1.98;;;0.20;99.90;;;;;;5075199;28;20020;-52
2024/01/08 06:44:42;;;;;;;3.08;2.60;;;0.10;99.90;;;;;;5074589;28;20522;-51
2024/01/08 06:47:07;;;;;;;3.83;2.45;;;0.10;99.90;;;;;;5073207;28;20028;-50
2024/01/08 06:49:34;;;;;;;2.78;2.25;;;0.20;99.90;;;;;;5072438;28;20029;-49
2024/01/08 06:52:00;;;;;;;2.83;2.50;;;0.20;99.90;;;;;;5072485;28;20032;-48
2024/01/08 06:54:26;;;;;;;7.50;3.55;;;0.20;99.90;;;;;;5054302;28;20299;-50
2024/01/08 06:56:51;;;;;;;2.72;2.50;;;0.20;99.90;;;;;;5072460;28;20442;-51
2024/01/08 06:59:18;;;;;;;3.88;2.55;;;0.20;99.90;;;;;;5072356;28;20586;-52
2024/01/08 07:01:44;;;;;;;4.57;2.80;;;0.10;99.90;;;;;;5054216;28;20143;-48
2024/01/08 07:04:10;;;;;;;3.03;2.63;;;0.10;99.90;;;;;;5054045;28;20154;-49
2024/01/08 07:06:35;;;;;;;3.72;3.10;;;0.10;99.90;;;;;;5072264;28;20027;-48
2024/01/08 07:09:01;;;;;;;2.70;2.50;;;0.10;99.90;;;;;;5072290;28;20020;-53
2024/01/08 07:11:26;;;;;;;4.35;2.90;;;0.00;99.90;;;;;;5071777;28;20028;-48
2024/01/08 07:13:52;;;;;;;6.32;3.47;;;0.10;99.90;;;;;;5053784;28;20543;-48
2024/01/08 07:16:18;;;;;;;7.90;3.13;;;0.00;99.90;;;;;;5071712;28;20051;-48
2024/01/08 07:18:45;;;;;;;2.42;2.22;;;-0.10;99.90;;;;;;5054000;28;20170;-52
2024/01/08 07:21:16;;;;;;;3.80;2.95;;;-0.10;99.90;;;;;;5072398;28;20551;-49
2024/01/08 07:23:48;;;;;;;4.22;2.83;;;-0.10;99.90;;;;;;5071873;28;20032;-52
2024/01/08 07:26:14;;;;;;;4.00;2.88;;;-0.10;99.90;;;;;;5053991;28;20082;-49
2024/01/08 07:28:43;;;;;;;2.65;2.45;;;-0.10;99.90;;;;;;5071095;28;20028;-53
2024/01/08 07:31:09;;;;;;;4.78;2.53;;;-0.10;99.90;;;;;;5053678;28;20111;-47
2024/01/08 07:33:36;;;;;;;4.80;2.70;;;-0.20;99.90;;;;;;5071804;28;20024;-46
2024/01/08 07:36:04;;;;;;;3.13;2.85;;;-0.20;99.90;;;;;;5053935;28;20484;-50
2024/01/08 07:38:29;;;;;;;2.50;2.30;;;-0.20;99.90;;;;;;5071607;28;20427;-50
2024/01/08 07:40:55;;;;;;;2.90;2.53;;;-0.20;99.90;;;;;;5071342;28;20023;-45
2024/01/08 07:43:20;;;;;;;5.20;2.75;;;-0.20;99.90;;;;;;5066821;28;20090;-49
2024/01/08 07:45:46;;;;;;;7.78;3.03;;;-0.30;99.90;;;;;;5043018;28;20094;-51
2024/01/08 07:48:12;;;;;;;3.13;2.33;;;-0.20;99.90;;;;;;5051064;28;20021;-48
2024/01/08 07:50:38;;;;;;;4.20;3.33;;;-0.30;99.90;;;;;;5050371;28;20021;-51
2024/01/08 07:53:04;;;;;;;4.57;3.10;;;-0.30;99.90;;;;;;5053425;28;20066;-52
2024/01/08 07:55:29;;;;;;;3.72;2.40;;;-0.30;99.90;;;;;;5053391;28;20021;-53
2024/01/08 07:57:55;;;;;;;7.95;3.03;;;-0.30;99.90;;;;;;5066729;28;20017;-46
2024/01/08 08:00:24;;;;;;;6.05;3.53;;;-0.40;99.90;;;;;;5061997;28;20025;-58
2024/01/08 08:02:50;;;;;;;4.45;2.83;;;-0.40;99.90;;;;;;5052740;28;20047;-51
2024/01/08 08:05:16;;;;;;;3.08;2.47;;;-0.40;99.90;;;;;;5065726;28;20132;-52
2024/01/08 08:07:42;;;;;;;4.03;2.63;;;-0.40;99.90;;;;;;5055015;28;20055;-52
2024/01/08 08:10:08;;;;;;;3.53;2.72;;;-0.40;99.90;;;;;;5049298;28;20033;-54
2024/01/08 08:12:34;;;;;;;4.25;2.67;;;-0.40;99.90;;;;;;5047350;28;20029;-47
2024/01/08 08:15:00;;;;;;;4.45;3.50;;;-0.50;99.90;;;;;;5055087;28;20031;-49
2024/01/08 08:17:26;;;;;;;4.35;2.83;;;-0.50;99.90;;;;;;5051609;28;20101;-47
2024/01/08 08:19:51;;;;;;;4.72;2.90;;;-0.50;99.90;;;;;;5051230;28;20431;-52
2024/01/08 08:22:17;;;;;;;5.40;3.33;;;-0.60;99.90;;;;;;5051487;28;20484;-49
2024/01/08 08:24:44;;;;;;;3.90;2.90;;;-0.60;99.90;;;;;;5051642;28;20100;-47
2024/01/08 08:27:11;;;;;;;7.95;3.05;;;-0.60;99.90;;;;;;5051445;28;20021;-48
2024/01/08 08:29:41;;;;;;;4.18;3.50;;;-0.60;99.90;;;;;;5051682;28;20029;-46
2024/01/08 08:32:08;;;;;;;3.70;2.78;;;-0.60;99.90;;;;;;5051406;28;20059;-48
2024/01/08 08:34:33;;;;;;;5.75;3.38;;;-0.80;99.90;;;;;;5033383;28;20055;-46
2024/01/08 08:36:59;;;;;;;5.30;3.20;;;-0.80;99.90;;;;;;5051483;28;20017;-48
2024/01/08 08:39:25;;;;;;;4.18;3.05;;;-0.80;99.90;;;;;;5052149;28;20499;-45
2024/01/08 08:41:50;;;;;;;8.10;3.30;;;-0.80;99.90;;;;;;5055243;28;20051;-47
2024/01/08 08:44:17;;;;;;;4.03;3.63;;;-0.80;99.90;;;;;;5037204;28;20025;-45
2024/01/08 08:46:44;;;;;;;3.75;3.35;;;-0.80;99.90;;;;;;5055326;28;20028;-48
2024/01/08 08:49:10;;;;;;;5.30;3.63;;;-0.80;99.90;;;;;;5055043;28;20032;-48
2024/01/08 08:51:36;;;;;;;6.53;3.60;;;-0.70;99.90;;;;;;5037101;28;20127;-48
2024/01/08 08:54:03;;;;;;;5.40;3.22;;;-0.90;99.90;;;;;;5054956;28;20028;-50
2024/01/08 08:56:32;;;;;;;4.72;3.45;;;-0.90;99.90;;;;;;5054921;28;20018;-49
2024/01/08 08:58:58;;;;;;;5.05;3.38;;;-0.90;99.90;;;;;;5055145;28;20017;-48
2024/01/08 09:01:24;;;;;;;4.28;3.38;;;-0.80;99.90;;;;;;5054649;28;20396;-48
2024/01/08 09:03:50;;;;;;;5.18;3.65;;;-0.30;99.90;;;;;;5054520;28;20112;-46
2024/01/08 09:06:15;;;;;;;5.47;3.55;;;0.10;99.90;;;;;;5054665;28;20097;-49
2024/01/08 09:08:41;;;;;;;5.63;3.45;;;0.60;99.90;;;;;;5054770;28;20079;-51
2024/01/08 09:11:08;;;;;;;5.85;3.65;;;0.90;99.90;;;;;;5036515;28;20031;-48
2024/01/08 09:13:33;;;;;;;4.35;3.38;;;1.10;99.90;;;;;;5054016;28;20044;-49
2024/01/08 09:15:59;;;;;;;6.22;3.47;;;1.00;99.10;;;;;;5054575;28;20025;-48
2024/01/08 09:18:26;;;;;;;7.00;3.88;;;0.90;99.60;;;;;;5054195;28;20017;-47
2024/01/08 09:20:52;;;;;;;4.72;3.40;;;0.90;99.60;;;;;;5036345;28;20047;-51
2024/01/08 09:23:18;;;;;;;5.20;4.10;;;;;;;;;;5053747;28;20021;-47
2024/01/08 09:25:43;;;;;;;4.90;3.72;;;1.60;98.80;;;;;;5054580;28;20036;-48
2024/01/08 09:28:09;;;;;;;4.70;3.70;;;1.60;98.30;;;;;;5054657;28;20029;-47
2024/01/08 09:30:34;;;;;;;5.25;3.95;;;1.20;98.60;;;;;;5054388;28;20029;-49
2024/01/08 09:33:00;;;;;;;5.00;3.75;;;1.30;98.80;;;;;;5059390;28;20036;-49
2024/01/08 09:35:25;;;;;;;10.38;3.67;;;1.30;98.60;;;;;;5074401;28;20323;-47
2024/01/08 09:37:51;;;;;;;8.35;3.40;;;1.40;98.50;;;;;;5070320;28;20029;-51
2024/01/08 09:40:17;;;;;;;3.60;2.92;;;1.50;98.80;;;;;;5059186;28;20024;-53
2024/01/08 09:42:43;;;;;;;4.45;3.55;;;1.50;98.70;;;;;;5055249;28;20029;-51
2024/01/08 09:45:12;;;;;;;4.05;3.50;;;1.70;98.50;;;;;;5074354;28;20438;-48
2024/01/08 09:47:40;;;;;;;5.97;4.30;;;1.50;98.30;;;;;;5075377;28;20026;-48
2024/01/08 09:50:11;;;;;;;5.03;3.95;;;1.60;98.40;;;;;;5074217;28;20432;-53
2024/01/08 09:52:41;;;;;;;4.60;3.47;;;1.80;98.40;;;;;;5075364;28;20088;-49
2024/01/08 09:55:09;;;;;;;7.50;4.13;;;1.90;97.90;;;;;;5056354;28;20020;-54
2024/01/08 09:57:35;;;;;;;5.90;3.50;;;2.00;97.70;;;;;;5074627;28;20024;-49
2024/01/08 10:00:01;;;;;;;4.03;3.10;;;2.20;97.20;;;;;;5074604;28;20016;-52
2024/01/08 10:02:27;;;;;;;6.65;3.47;;;2.20;97.50;;;;;;5075047;28;20028;-51
2024/01/08 10:04:53;;;;;;;4.88;3.47;;;2.00;97.60;;;;;;5062637;28;20133;-51
2024/01/08 10:07:19;;;;;;;3.80;3.45;;;2.00;97.80;;;;;;5054070;28;20020;-49
2024/01/08 10:09:45;;;;;;;6.47;4.00;;;2.20;97.80;;;;;;5037232;28;20021;-49
2024/01/08 10:12:11;;;;;;;6.70;3.78;;;2.20;97.60;;;;;;5053653;28;20028;-51
2024/01/08 10:14:37;;;;;;;5.53;3.88;;;2.20;97.70;;;;;;5041772;28;20047;-55
2024/01/08 10:17:02;;;;;;;8.90;3.80;;;2.00;97.60;;;;;;5051129;28;20016;-50
2024/01/08 10:19:28;;;;;;;6.18;3.97;;;1.20;98.40;;;;;;5077390;28;20494;-50
2024/01/08 10:22:13;;;;;;;3.95;3.50;;;1.00;98.90;;;;;;5066150;28;20438;-50
2024/01/08 10:24:41;;;;;;;9.57;3.90;;;0.50;99.50;;;;;;5059257;28;20067;-52
2024/01/08 10:27:08;;;;;;;5.55;3.88;;;0.20;99.90;;;;;;5066389;28;20055;-51
2024/01/08 10:29:35;;;;;;;6.05;4.28;;;0.20;99.90;;;;;;5039829;28;20032;-51
2024/01/08 10:32:01;;;;;;;4.78;3.20;;;0.10;99.90;;;;;;5049565;28;20028;-52
2024/01/08 10:34:26;;;;;;;5.80;3.75;;;0.10;99.90;;;;;;5073445;28;20032;-50
2024/01/08 10:36:55;;;;;;;6.82;3.35;;;0.10;99.90;;;;;;5073530;28;20201;-50
2024/01/08 10:39:21;;;;;;;4.53;3.22;;;0.10;99.60;;;;;;5073169;28;20442;-51
2024/01/08 10:41:47;;;;;;;6.03;3.45;;;0.00;99.60;;;;;;5073225;28;20056;-52
2024/01/08 10:44:12;;;;;;;4.43;3.50;;;0.10;99.70;;;;;;5047396;28;20118;-51
2024/01/08 10:46:58;;;;;;;4.75;3.40;;;0.00;99.80;;;;;;5069799;28;20035;-55
2024/01/08 10:49:36;;;;;;;23.00;11.77;;;;;;;;;;5072107;28;20122;-51
2024/01/08 10:52:10;;;;;;;12.50;8.23;;;-0.30;99.80;;;;;;5061431;28;20520;-50
2024/01/08 10:54:56;;;;;;;7.13;4.22;;;-0.30;99.90;;;;;;5072181;28;20024;-52
2024/01/08 10:57:30;;;;;;;3.88;3.13;;;-0.40;99.90;;;;;;5072215;28;20013;-52
2024/01/08 10:59:56;;;;;;;5.15;3.55;;;-0.40;99.80;;;;;;5052157;28;20025;-54
2024/01/08 11:02:25;;;;;;;7.38;4.20;;;-0.50;99.90;;;;;;5064157;28;20107;-52
2024/01/08 11:04:58;;;;;;;5.70;3.08;;;-0.50;99.90;;;;;;5080783;28;20035;-51
2024/01/08 11:07:24;;;;;;;3.88;2.88;;;-0.60;99.90;;;;;;5089953;28;20051;-59
2024/01/08 11:09:50;;;;;;;5.95;3.50;;;-0.50;99.90;;;;;;5079789;28;20035;-57
2024/01/08 11:12:15;;;;;;;5.13;3.20;;;-0.40;99.90;;;;;;5055792;28;20033;-51
2024/01/08 11:14:41;;;;;;;6.55;4.25;;;-0.40;99.90;;;;;;5059946;28;20025;-52
2024/01/08 11:17:10;;;;;;;3.75;3.40;;;-0.50;99.40;;;;;;5062160;28;20021;-51
2024/01/08 11:19:45;;;;;;;6.50;3.40;;;-0.50;99.80;;;;;;5072213;28;20055;-48
2024/01/08 11:22:11;;;;;;;4.35;3.90;;;-0.60;98.60;;;;;;5056621;28;20095;-53
2024/01/08 11:24:38;;;;;;;5.10;3.63;;;-0.70;98.90;;;;;;5052217;28;20325;-54
2024/01/08 11:27:04;;;;;;;10.85;3.10;;;-0.80;99.20;;;;;;5053148;28;20039;-54
2024/01/08 11:29:32;;;;;;;7.55;4.03;;;-0.70;99.80;;;;;;5069183;28;20056;-49
2024/01/08 11:32:25;;;;;;;4.32;3.30;;;-0.70;99.30;;;;;;5071934;28;20032;-50
2024/01/08 11:35:03;;;;;;;6.70;3.65;;;-0.60;99.20;;;;;;5056222;28;20449;-51
2024/01/08 11:37:32;;;;;;;5.07;3.20;;;-0.70;99.20;;;;;;5052956;28;20024;-51
2024/01/08 11:40:12;;;;;;;81.97;37.97;;;-0.70;99.40;;;;;;5052527;28;20025;-49
2024/01/08 11:42:39;;;;;;;24.38;11.27;;;-0.60;99.60;;;;;;5052501;28;20025;-51
2024/01/08 11:45:05;;;;;;;7.07;3.72;;;-0.50;99.20;;;;;;5052570;28;20021;-47
2024/01/08 11:47:32;;;;;;;5.65;3.75;;;-0.60;99.60;;;;;;5034709;28;20056;-53
2024/01/08 11:49:57;;;;;;;6.03;4.15;;;-0.60;99.20;;;;;;5034995;28;20025;-51
2024/01/08 11:52:26;;;;;;;7.28;4.68;;;-0.70;99.30;;;;;;5042017;28;20088;-48
2024/01/08 11:54:54;;;;;;;5.70;3.67;;;-0.60;99.70;;;;;;5092539;28;20100;-51
2024/01/08 11:57:20;;;;;;;4.38;3.13;;;-0.50;99.30;;;;;;5092717;28;20032;-54
2024/01/08 11:59:46;;;;;;;5.72;3.47;;;-0.60;99.20;;;;;;5092495;28;20146;-50
2024/01/08 12:02:16;;;;;;;5.32;3.60;;;-0.70;99.30;;;;;;5074164;28;20031;-49
2024/01/08 12:04:51;;;;;;;4.47;3.55;;;-0.60;99.30;;;;;;5092590;28;20051;-52
2024/01/08 12:07:17;;;;;;;;;;;-0.70;99.50;;;;;;5075315;28;20063;-49
2024/01/08 12:09:43;;;;;;;4.63;3.40;;;-0.70;99.60;;;;;;5092657;28;19928;-51
2024/01/08 12:12:09;;;;;;;8.13;4.63;;;-0.70;99.90;;;;;;5074379;28;20055;-50
2024/01/08 12:14:36;;;;;;;5.85;4.18;;;-0.60;99.80;;;;;;5077045;28;20363;-48
2024/01/08 12:17:03;;;;;;;4.40;3.92;;;-0.60;99.20;;;;;;5096658;28;20463;-48
2024/01/08 12:19:39;;;;;;;5.38;4.63;;;-0.60;99.20;;;;;;5096331;28;20099;-49
2024/01/08 12:22:07;;;;;;;6.10;4.13;;;-0.60;99.20;;;;;;5096462;28;20042;-51
2024/01/08 12:24:34;;;;;;;4.50;3.50;;;-0.80;99.10;;;;;;5096049;28;20058;-52
2024/01/08 12:27:03;;;;;;;8.10;4.25;;;-0.80;99.20;;;;;;5096358;28;20031;-48
2024/01/08 12:29:29;;;;;;;5.75;4.10;;;-0.70;99.50;;;;;;5095783;28;20510;-46
2024/01/08 12:32:00;;;;;;;5.80;3.88;;;-0.80;98.70;;;;;;5095795;28;20031;-49
2024/01/08 12:34:28;;;;;;;5.47;3.83;;;-0.80;98.80;;;;;;5095938;28;20032;-52
2024/01/08 12:36:53;;;;;;;5.55;4.28;;;-0.80;99.30;;;;;;5096087;28;20024;-52
2024/01/08 12:39:19;;;;;;;6.07;3.85;;;-0.80;99.10;;;;;;5096254;28;20511;-52
2024/01/08 12:41:44;;;;;;;6.75;4.20;;;-0.70;98.60;;;;;;5095973;28;20557;-49
2024/01/08 12:44:10;;;;;;;6.90;4.22;;;-0.80;99.20;;;;;;5095820;28;20016;-49
2024/01/08 12:46:36;;;;;;;5.03;4.20;;;-0.90;99.20;;;;;;5096007;28;20036;-53
2024/01/08 12:49:02;;;;;;;8.07;4.88;;;-0.90;99.30;;;;;;5077750;28;20016;-54
2024/01/08 12:51:28;;;;;;;4.65;3.83;;;-0.80;99.40;;;;;;5095445;28;20024;-49